createdAt,value
2023-03-02T00:01:00.126Z,100974.09
2023-03-02T00:03:29.031Z,100969.88
2023-03-02T00:05:57.508Z,100978.53
2023-03-02T00:08:25.291Z,100969.47
2023-03-02T00:10:54.534Z,100966.09
2023-03-02T00:13:23.977Z,100977.28
2023-03-02T00:15:51.696Z,100972.94
2023-03-02T00:18:19.400Z,100967.69
2023-03-02T00:20:47.121Z,100971.47
2023-03-02T00:23:16.265Z,100963.16
2023-03-02T00:25:43.989Z,100968.31
2023-03-02T00:28:11.695Z,100961.25
2023-03-02T00:30:40.734Z,100962.09
2023-03-02T00:33:08.399Z,100965.47
2023-03-02T00:35:38.972Z,100965.25
2023-03-02T00:38:07.292Z,100962.09
2023-03-02T00:40:35.347Z,100961.47
2023-03-02T00:43:03.018Z,100964.00
2023-03-02T00:45:30.793Z,100965.88
2023-03-02T00:47:59.869Z,100961.47
2023-03-02T00:50:27.501Z,100958.22
2023-03-02T00:52:55.142Z,100963.47
2023-03-02T00:55:22.940Z,100949.56
2023-03-02T00:57:55.088Z,100957.78
2023-03-02T01:00:23.610Z,100955.16
2023-03-02T01:02:52.053Z,100945.06
2023-03-02T01:05:21.295Z,100945.06
2023-03-02T01:07:49.324Z,100948.63
2023-03-02T01:10:20.097Z,100944.41
2023-03-02T01:12:47.792Z,100934.94
2023-03-02T01:15:15.512Z,100936.84
2023-03-02T01:17:43.886Z,100934.94
2023-03-02T01:20:12.626Z,100932.41
2023-03-02T01:22:42.656Z,100922.94
2023-03-02T01:25:11.091Z,100920.31
2023-03-02T01:27:38.862Z,100918.09
2023-03-02T01:30:07.958Z,100916.44
2023-03-02T01:32:35.779Z,100918.41
2023-03-02T01:35:03.794Z,100917.06
2023-03-02T01:37:31.464Z,100921.66
2023-03-02T01:40:06.627Z,100911.66
2023-03-02T01:42:38.122Z,100913.03
2023-03-02T01:45:07.407Z,100909.22
2023-03-02T01:47:37.563Z,100908.16
2023-03-02T01:50:13.738Z,100897.44
2023-03-02T01:52:41.707Z,100901.56
2023-03-02T01:55:16.884Z,100897.25
2023-03-02T01:57:47.842Z,100903.03
2023-03-02T02:00:19.468Z,100899.47
2023-03-02T02:02:47.685Z,100890.81
2023-03-02T02:05:20.769Z,100892.94
2023-03-02T02:07:48.491Z,100895.13
2023-03-02T02:10:17.655Z,100886.41
2023-03-02T02:12:45.445Z,100891.66
2023-03-02T02:15:13.179Z,100876.00
2023-03-02T02:17:44.227Z,100882.28
2023-03-02T02:20:24.189Z,100881.25
2023-03-02T02:23:04.353Z,100879.56
2023-03-02T02:25:46.205Z,100876.09
2023-03-02T02:28:20.587Z,100875.25
2023-03-02T02:30:53.301Z,100868.50
2023-03-02T02:33:25.577Z,100871.13
2023-03-02T02:35:57.122Z,100870.28
2023-03-02T02:38:26.576Z,100870.50
2023-03-02T02:40:58.063Z,100866.00
2023-03-02T02:43:31.757Z,100870.50
2023-03-02T02:46:01.277Z,100874.50
2023-03-02T02:48:31.911Z,100871.31
2023-03-02T02:51:03.077Z,100876.13
2023-03-02T02:53:38.688Z,100876.03
2023-03-02T02:56:09.596Z,100876.78
2023-03-02T02:58:42.868Z,100878.66
2023-03-02T03:01:14.240Z,100881.28
2023-03-02T03:03:48.668Z,100881.38
2023-03-02T03:06:20.920Z,100884.34
2023-03-02T03:08:55.867Z,100875.63
2023-03-02T03:11:26.571Z,100876.88
2023-03-02T03:14:03.732Z,100869.78
2023-03-02T03:16:33.894Z,100874.91
2023-03-02T03:19:07.960Z,100872.38
2023-03-02T03:21:36.206Z,100873.97
2023-03-02T03:24:03.954Z,100871.03
2023-03-02T03:26:31.990Z,100865.78
2023-03-02T03:29:01.655Z,100862.31
2023-03-02T03:31:29.866Z,100865.19
2023-03-02T03:34:00.519Z,100867.91
2023-03-02T03:36:29.112Z,100859.09
2023-03-02T03:38:59.912Z,100866.53
2023-03-02T03:41:27.935Z,100865.78
2023-03-02T03:43:56.188Z,100862.50
2023-03-02T03:46:26.219Z,100857.25
2023-03-02T03:48:53.923Z,100852.75
2023-03-02T03:51:21.657Z,100850.88
2023-03-02T03:53:59.672Z,100844.88
2023-03-02T03:56:27.504Z,100852.94
2023-03-02T03:59:06.116Z,100850.63
2023-03-02T04:01:36.613Z,100854.69
2023-03-02T04:04:06.365Z,100856.88
2023-03-02T04:06:34.372Z,100853.53
2023-03-02T04:09:04.977Z,100863.66
2023-03-02T04:11:37.765Z,100859.88
2023-03-02T04:14:05.598Z,100871.88
2023-03-02T04:16:35.606Z,100870.81
2023-03-02T04:19:06.044Z,100867.25
2023-03-02T04:21:33.729Z,100870.19
2023-03-02T04:24:01.409Z,100869.16
2023-03-02T04:26:29.101Z,100867.34
2023-03-02T04:28:56.806Z,100878.00
2023-03-02T04:31:24.447Z,100871.97
2023-03-02T04:33:53.755Z,100873.75
2023-03-02T04:36:21.514Z,100886.25
2023-03-02T04:38:50.420Z,100882.34
2023-03-02T04:41:19.385Z,100869.28
2023-03-02T04:43:47.139Z,100875.41
2023-03-02T04:46:24.428Z,100877.41
2023-03-02T04:48:53.887Z,100887.41
2023-03-02T04:51:25.086Z,100885.38
2023-03-02T04:53:53.413Z,100889.50
2023-03-02T04:56:21.104Z,100883.31
2023-03-02T04:58:49.094Z,100879.94
2023-03-02T05:01:18.480Z,100884.09
2023-03-02T05:03:46.961Z,100880.09
2023-03-02T05:06:16.336Z,100872.31
2023-03-02T05:08:44.413Z,100872.75
2023-03-02T05:11:15.832Z,100876.78
2023-03-02T05:13:43.555Z,100877.38
2023-03-02T05:16:11.150Z,100868.09
2023-03-02T05:18:38.867Z,100869.31
2023-03-02T05:21:07.328Z,100874.19
2023-03-02T05:23:36.343Z,100874.84
2023-03-02T05:26:04.315Z,100870.44
2023-03-02T05:28:32.025Z,100865.75
2023-03-02T05:31:00.266Z,100862.38
2023-03-02T05:33:27.992Z,100853.75
2023-03-02T05:35:55.902Z,100856.97
2023-03-02T05:38:24.205Z,100864.53
2023-03-02T05:40:53.250Z,100866.78
2023-03-02T05:43:23.434Z,100870.75
2023-03-02T05:45:51.164Z,100864.00
2023-03-02T05:48:18.768Z,100872.69
2023-03-02T05:50:46.490Z,100871.50
2023-03-02T05:53:14.155Z,100868.50
2023-03-02T05:55:41.778Z,100872.69
2023-03-02T05:58:20.632Z,100878.88
2023-03-02T06:00:49.505Z,100878.88
2023-03-02T06:03:17.936Z,100881.25
2023-03-02T06:05:50.750Z,100882.00
2023-03-02T06:08:19.047Z,100881.59
2023-03-02T06:10:47.173Z,100883.19
2023-03-02T06:13:16.357Z,100892.00
2023-03-02T06:15:44.175Z,100898.84
2023-03-02T06:18:12.588Z,100897.72
2023-03-02T06:20:40.871Z,100896.84
2023-03-02T06:23:11.699Z,100897.78
2023-03-02T06:25:41.330Z,100898.38
2023-03-02T06:28:08.978Z,100891.22
2023-03-02T06:30:38.023Z,100898.50
2023-03-02T06:33:05.769Z,100903.56
2023-03-02T06:35:33.451Z,100907.88
2023-03-02T06:38:01.173Z,100910.88
2023-03-02T06:40:28.932Z,100913.09
2023-03-02T06:42:56.754Z,100913.66
2023-03-02T06:45:24.424Z,100915.53
2023-03-02T06:47:53.455Z,100917.41
2023-03-02T06:50:21.433Z,100920.78
2023-03-02T06:52:49.147Z,100920.50
2023-03-02T06:55:17.001Z,100923.75
2023-03-02T06:57:44.659Z,100931.72
2023-03-02T07:00:17.258Z,100928.44
2023-03-02T07:02:45.802Z,100923.00
2023-03-02T07:05:14.801Z,100919.94
2023-03-02T07:07:42.838Z,100921.72
2023-03-02T07:10:12.219Z,100918.69
2023-03-02T07:12:39.943Z,100925.69
2023-03-02T07:15:11.379Z,100925.63
2023-03-02T07:17:39.367Z,100922.47
2023-03-02T07:20:08.441Z,100922.56
2023-03-02T07:22:37.698Z,100923.81
2023-03-02T07:25:06.249Z,100926.22
2023-03-02T07:27:33.917Z,100924.34
2023-03-02T07:30:01.850Z,100927.72
2023-03-02T07:32:29.783Z,100920.16
2023-03-02T07:34:57.498Z,100930.16
2023-03-02T07:37:25.284Z,100920.16
2023-03-02T07:39:55.381Z,100924.72
2023-03-02T07:42:23.196Z,100923.47
2023-03-02T07:44:53.363Z,100920.63
2023-03-02T07:47:21.137Z,100918.09
2023-03-02T07:49:48.838Z,100920.22
2023-03-02T07:52:16.635Z,100918.53
2023-03-02T07:54:44.458Z,100920.75
2023-03-02T07:57:16.053Z,100912.41
2023-03-02T07:59:43.997Z,100916.94
2023-03-02T08:02:14.945Z,100918.31
2023-03-02T08:04:42.899Z,100924.00
2023-03-02T08:07:10.841Z,100915.88
2023-03-02T08:09:39.453Z,100914.72
2023-03-02T08:12:07.150Z,100918.34
2023-03-02T08:14:36.626Z,100915.81
2023-03-02T08:17:05.426Z,100917.06
2023-03-02T08:19:33.396Z,100914.81
2023-03-02T08:22:01.826Z,100916.19
2023-03-02T08:24:29.428Z,100915.31
2023-03-02T08:26:57.160Z,100912.75
2023-03-02T08:29:25.136Z,100913.88
2023-03-02T08:31:54.398Z,100917.63
2023-03-02T08:34:22.197Z,100918.09
2023-03-02T08:36:49.901Z,100926.22
2023-03-02T08:39:17.597Z,100919.16
2023-03-02T08:41:45.522Z,100906.06
2023-03-02T08:44:13.181Z,100906.47
2023-03-02T08:46:40.840Z,100910.78
2023-03-02T08:49:09.882Z,100899.41
2023-03-02T08:51:37.604Z,100904.41
2023-03-02T08:54:05.495Z,100895.25
2023-03-02T08:56:37.432Z,100895.16
2023-03-02T08:59:06.928Z,100888.41
2023-03-02T09:01:36.831Z,100886.13
2023-03-02T09:04:06.465Z,100889.72
2023-03-02T09:06:38.385Z,100882.34
2023-03-02T09:09:07.362Z,100883.38
2023-03-02T09:11:35.371Z,100873.88
2023-03-02T09:14:03.650Z,100875.06
2023-03-02T09:16:31.876Z,100868.84
2023-03-02T09:18:59.647Z,100871.94
2023-03-02T09:21:27.465Z,100865.22
2023-03-02T09:23:58.328Z,100864.84
2023-03-02T09:26:26.760Z,100869.16
2023-03-02T09:28:54.498Z,100865.91
2023-03-02T09:31:22.496Z,100862.72
2023-03-02T09:33:50.249Z,100863.88
2023-03-02T09:36:24.964Z,100872.44
2023-03-02T09:38:53.368Z,100871.09
2023-03-02T09:41:39.542Z,100865.75
2023-03-02T09:44:25.200Z,100869.28
2023-03-02T09:46:57.215Z,100861.88
2023-03-02T09:49:44.646Z,100852.91
2023-03-02T09:52:23.364Z,100855.31
2023-03-02T09:54:51.151Z,100850.50
2023-03-02T09:57:23.884Z,100855.84
2023-03-02T09:59:56.453Z,100848.88
2023-03-02T10:02:29.421Z,100849.06
2023-03-02T10:04:59.486Z,100851.38
2023-03-02T10:07:29.397Z,100857.94
2023-03-02T10:10:05.669Z,100854.94
2023-03-02T10:12:59.952Z,100851.63
2023-03-02T10:15:32.932Z,100851.81
2023-03-02T10:18:05.043Z,100849.34
2023-03-02T10:20:38.513Z,100844.03
2023-03-02T10:23:20.608Z,100833.16
2023-03-02T10:25:52.348Z,100846.28
2023-03-02T10:28:25.142Z,100848.25
2023-03-02T10:30:59.147Z,100845.91
2023-03-02T10:33:28.518Z,100847.84
2023-03-02T10:35:56.213Z,100846.34
2023-03-02T10:38:26.151Z,100852.94
2023-03-02T10:41:00.075Z,100842.81
2023-03-02T10:43:35.174Z,100835.59
2023-03-02T10:46:04.873Z,100830.16
2023-03-02T10:48:32.908Z,100834.53
2023-03-02T10:51:01.263Z,100817.66
2023-03-02T10:53:29.415Z,100826.56
2023-03-02T10:55:57.272Z,100824.75
2023-03-02T10:58:30.858Z,100833.50
2023-03-02T11:01:03.378Z,100813.47
2023-03-02T11:03:32.461Z,100817.00
2023-03-02T11:06:12.062Z,100800.19
2023-03-02T11:08:39.775Z,100797.81
2023-03-02T11:11:07.442Z,100796.63
2023-03-02T11:13:36.912Z,100799.28
2023-03-02T11:16:24.863Z,100796.13
2023-03-02T11:18:57.009Z,100797.16
2023-03-02T11:21:31.126Z,100791.19
2023-03-02T11:24:07.914Z,100788.50
2023-03-02T11:26:40.694Z,100777.91
2023-03-02T11:29:17.312Z,100783.16
2023-03-02T11:31:51.733Z,100778.16
2023-03-02T11:34:30.324Z,100776.47
2023-03-02T11:37:04.740Z,100774.75
2023-03-02T11:39:50.002Z,100770.97
2023-03-02T11:42:29.909Z,100772.47
2023-03-02T11:45:01.774Z,100766.09
2023-03-02T11:47:33.992Z,100759.19
2023-03-02T11:50:06.487Z,100759.81
2023-03-02T11:52:38.773Z,100761.47
2023-03-02T11:55:16.747Z,100761.72
2023-03-02T11:57:49.516Z,100761.09
2023-03-02T12:00:29.899Z,100753.09
2023-03-02T12:03:04.922Z,100750.63
2023-03-02T12:05:36.297Z,100748.56
2023-03-02T12:08:06.737Z,100744.19
2023-03-02T12:10:37.803Z,100737.75
2023-03-02T12:13:16.649Z,100739.25
2023-03-02T12:15:46.002Z,100734.19
2023-03-02T12:18:49.156Z,100732.00
2023-03-02T12:21:19.020Z,100730.06
2023-03-02T12:24:03.826Z,100733.16
2023-03-02T12:26:36.790Z,100724.00
2023-03-02T12:29:22.618Z,100728.94
2023-03-02T12:31:53.439Z,100720.69
2023-03-02T12:34:34.644Z,100729.47
2023-03-02T12:37:08.380Z,100719.41
2023-03-02T12:39:54.496Z,100704.34
2023-03-02T12:42:40.550Z,100713.88
2023-03-02T12:45:25.318Z,100711.34
2023-03-02T12:48:02.390Z,100704.03
2023-03-02T12:50:34.952Z,100717.16
2023-03-02T12:53:05.657Z,100700.56
2023-03-02T12:55:34.537Z,100708.53
2023-03-02T12:58:03.135Z,100694.69
2023-03-02T13:00:32.691Z,100701.94
2023-03-02T13:03:03.135Z,100703.03
2023-03-02T13:05:34.521Z,100698.03
2023-03-02T13:08:05.579Z,100699.97
2023-03-02T13:10:37.004Z,100701.31
2023-03-02T13:13:16.508Z,100693.56
2023-03-02T13:15:55.473Z,100695.03
2023-03-02T13:18:25.983Z,100687.25
2023-03-02T13:20:56.538Z,100690.31
2023-03-02T13:23:24.293Z,100694.63
2023-03-02T13:25:53.926Z,100680.19
2023-03-02T13:28:30.573Z,100681.53
2023-03-02T13:31:00.925Z,100684.19
2023-03-02T13:33:30.776Z,100682.88
2023-03-02T13:36:00.524Z,100690.16
2023-03-02T13:38:38.495Z,100678.81
2023-03-02T13:41:06.491Z,100688.78
2023-03-02T13:43:38.405Z,100676.75
2023-03-02T13:46:08.131Z,100681.91
2023-03-02T13:48:35.841Z,100679.41
2023-03-02T13:51:16.646Z,100679.28
2023-03-02T13:53:53.346Z,100673.66
2023-03-02T13:56:29.876Z,100673.09
2023-03-02T13:58:57.661Z,100672.44
2023-03-02T14:01:25.861Z,100670.31
2023-03-02T14:03:54.182Z,100675.53
2023-03-02T14:06:24.493Z,100672.72
2023-03-02T14:08:52.233Z,100670.38
2023-03-02T14:11:19.985Z,100667.53
2023-03-02T14:13:52.394Z,100667.19
2023-03-02T14:16:20.003Z,100665.88
2023-03-02T14:18:49.179Z,100665.19
2023-03-02T14:21:18.989Z,100663.03
2023-03-02T14:23:48.645Z,100663.09
2023-03-02T14:26:31.738Z,100652.91
2023-03-02T14:29:05.924Z,100657.78
2023-03-02T14:31:34.504Z,100657.78
2023-03-02T14:34:02.513Z,100661.81
2023-03-02T14:36:33.098Z,100648.63
2023-03-02T14:39:05.177Z,100653.66
2023-03-02T14:41:38.511Z,100652.81
2023-03-02T14:44:12.380Z,100645.63
2023-03-02T14:46:40.083Z,100649.94
2023-03-02T14:49:07.835Z,100646.13
2023-03-02T14:51:37.657Z,100651.16
2023-03-02T14:54:09.648Z,100634.47
2023-03-02T14:56:38.245Z,100641.13
2023-03-02T14:59:05.997Z,100645.81
2023-03-02T15:01:33.814Z,100639.47
2023-03-02T15:04:01.678Z,100646.13
2023-03-02T15:06:31.034Z,100646.13
2023-03-02T15:09:01.109Z,100640.13
2023-03-02T15:11:30.816Z,100648.81
2023-03-02T15:13:58.853Z,100644.78
2023-03-02T15:16:26.676Z,100645.31
2023-03-02T15:18:55.587Z,100639.13
2023-03-02T15:21:25.570Z,100641.75
2023-03-02T15:23:53.240Z,100656.44
2023-03-02T15:26:21.042Z,100648.75
2023-03-02T15:28:52.478Z,100655.28
2023-03-02T15:31:21.471Z,100642.09
2023-03-02T15:33:51.948Z,100654.75
2023-03-02T15:36:20.749Z,100645.59
2023-03-02T15:38:51.894Z,100648.44
2023-03-02T15:41:20.543Z,100645.75
2023-03-02T15:43:52.451Z,100655.56
2023-03-02T15:46:20.604Z,100649.06
2023-03-02T15:48:48.349Z,100647.72
2023-03-02T15:51:16.223Z,100645.56
2023-03-02T15:53:43.945Z,100641.69
2023-03-02T15:56:13.813Z,100653.00
2023-03-02T15:58:42.076Z,100651.00
2023-03-02T16:01:12.411Z,100653.59
2023-03-02T16:03:40.193Z,100656.03
2023-03-02T16:06:09.045Z,100648.84
2023-03-02T16:08:37.109Z,100651.00
2023-03-02T16:11:07.073Z,100656.66
2023-03-02T16:13:35.734Z,100655.44
2023-03-02T16:16:05.697Z,100661.41
2023-03-02T16:18:34.909Z,100660.06
2023-03-02T16:21:03.527Z,100655.34
2023-03-02T16:23:31.295Z,100654.19
2023-03-02T16:26:08.506Z,100661.63
2023-03-02T16:28:36.582Z,100655.28
2023-03-02T16:31:05.050Z,100661.72
2023-03-02T16:33:34.550Z,100663.03
2023-03-02T16:36:02.216Z,100664.34
2023-03-02T16:38:30.012Z,100657.97
2023-03-02T16:40:57.749Z,100664.44
2023-03-02T16:43:25.492Z,100671.06
2023-03-02T16:45:53.572Z,100676.19
2023-03-02T16:48:21.676Z,100671.31
2023-03-02T16:50:56.857Z,100676.94
2023-03-02T16:53:25.136Z,100687.88
2023-03-02T16:55:52.813Z,100682.84
2023-03-02T16:58:20.630Z,100686.00
2023-03-02T17:00:48.439Z,100688.78
2023-03-02T17:03:17.065Z,100684.59
2023-03-02T17:05:44.874Z,100696.38
2023-03-02T17:08:16.285Z,100689.69
2023-03-02T17:10:45.244Z,100705.94
2023-03-02T17:13:15.479Z,100705.03
2023-03-02T17:15:43.585Z,100704.28
2023-03-02T17:18:11.855Z,100712.16
2023-03-02T17:20:41.772Z,100709.97
2023-03-02T17:23:11.927Z,100716.69
2023-03-02T17:25:41.325Z,100715.91
2023-03-02T17:28:09.240Z,100721.34
2023-03-02T17:30:37.004Z,100726.91
2023-03-02T17:33:04.795Z,100729.03
2023-03-02T17:35:32.429Z,100725.16
2023-03-02T17:38:00.241Z,100733.72
2023-03-02T17:40:28.053Z,100737.66
2023-03-02T17:42:57.911Z,100733.31
2023-03-02T17:45:27.704Z,100744.78
2023-03-02T17:47:56.706Z,100748.28
2023-03-02T17:50:25.662Z,100745.09
2023-03-02T17:52:54.227Z,100756.84
2023-03-02T17:55:22.010Z,100753.09
2023-03-02T17:57:50.035Z,100758.00
2023-03-02T18:00:22.065Z,100761.94
2023-03-02T18:02:50.387Z,100766.69
2023-03-02T18:05:18.302Z,100768.97
2023-03-02T18:07:46.215Z,100763.94
2023-03-02T18:10:15.106Z,100767.88
2023-03-02T18:12:43.469Z,100762.72
2023-03-02T18:15:13.248Z,100771.50
2023-03-02T18:17:42.325Z,100774.56
2023-03-02T18:20:12.093Z,100774.56
2023-03-02T18:22:40.078Z,100777.53
2023-03-02T18:25:09.173Z,100781.44
2023-03-02T18:27:37.053Z,100776.41
2023-03-02T18:30:05.546Z,100782.31
2023-03-02T18:32:33.434Z,100790.00
2023-03-02T18:35:02.582Z,100786.38
2023-03-02T18:37:30.629Z,100795.31
2023-03-02T18:39:58.440Z,100791.69
2023-03-02T18:42:26.129Z,100797.53
2023-03-02T18:44:54.172Z,100796.16
2023-03-02T18:47:21.942Z,100794.50
2023-03-02T18:49:49.794Z,100803.41
2023-03-02T18:52:18.938Z,100810.41
2023-03-02T18:54:49.429Z,100802.59
2023-03-02T18:57:17.185Z,100801.88
2023-03-02T18:59:45.026Z,100807.63
2023-03-02T19:02:14.613Z,100818.22
2023-03-02T19:04:42.939Z,100811.38
2023-03-02T19:07:10.837Z,100807.88
2023-03-02T19:09:40.065Z,100815.13
2023-03-02T19:12:07.929Z,100815.84
2023-03-02T19:14:35.680Z,100809.28
2023-03-02T19:17:03.439Z,100815.69
2023-03-02T19:19:31.318Z,100819.31
2023-03-02T19:21:59.395Z,100820.47
2023-03-02T19:24:27.054Z,100823.13
2023-03-02T19:26:56.118Z,100818.91
2023-03-02T19:29:23.915Z,100819.06
2023-03-02T19:31:51.788Z,100822.13
2023-03-02T19:34:19.561Z,100826.03
2023-03-02T19:36:47.462Z,100824.34
2023-03-02T19:39:15.671Z,100820.31
2023-03-02T19:41:43.428Z,100825.75
2023-03-02T19:44:12.585Z,100823.22
2023-03-02T19:46:40.478Z,100821.81
2023-03-02T19:49:08.319Z,100822.09
2023-03-02T19:51:36.182Z,100823.31
2023-03-02T19:54:04.253Z,100826.38
2023-03-02T19:56:34.895Z,100829.03
2023-03-02T19:59:03.154Z,100821.47
2023-03-02T20:01:32.277Z,100834.84
2023-03-02T20:04:00.098Z,100831.91
2023-03-02T20:06:31.211Z,100834.56
2023-03-02T20:09:00.559Z,100840.16
2023-03-02T20:11:28.827Z,100840.41
2023-03-02T20:13:57.339Z,100845.66
2023-03-02T20:16:25.084Z,100846.22
2023-03-02T20:18:54.228Z,100845.63
2023-03-02T20:21:25.813Z,100841.59
2023-03-02T20:23:53.586Z,100846.69
2023-03-02T20:26:21.626Z,100852.25
2023-03-02T20:28:49.598Z,100849.31
2023-03-02T20:31:17.678Z,100847.69
2023-03-02T20:33:48.145Z,100848.91
2023-03-02T20:36:20.767Z,100853.34
2023-03-02T20:38:52.200Z,100858.66
2023-03-02T20:41:20.594Z,100861.16
2023-03-02T20:43:48.350Z,100851.81
2023-03-02T20:46:22.438Z,100855.81
2023-03-02T20:48:50.463Z,100863.88
2023-03-02T20:51:19.981Z,100865.81
2023-03-02T20:53:47.933Z,100866.81
2023-03-02T20:56:18.061Z,100867.44
2023-03-02T20:58:46.972Z,100871.91
2023-03-02T21:01:17.352Z,100867.19
2023-03-02T21:03:45.404Z,100867.44
2023-03-02T21:06:15.126Z,100864.13
2023-03-02T21:08:45.672Z,100869.13
2023-03-02T21:11:16.162Z,100861.31
2023-03-02T21:13:46.352Z,100862.81
2023-03-02T21:16:18.571Z,100862.63
2023-03-02T21:18:46.401Z,100866.38
2023-03-02T21:21:14.434Z,100867.19
2023-03-02T21:23:42.532Z,100871.53
2023-03-02T21:26:12.786Z,100866.22
2023-03-02T21:28:43.985Z,100871.28
2023-03-02T21:31:12.577Z,100865.84
2023-03-02T21:33:40.735Z,100873.19
2023-03-02T21:36:09.691Z,100871.69
2023-03-02T21:38:37.298Z,100878.06
2023-03-02T21:41:05.257Z,100868.97
2023-03-02T21:43:34.530Z,100874.75
2023-03-02T21:46:02.282Z,100869.44
2023-03-02T21:48:29.990Z,100867.78
2023-03-02T21:50:57.800Z,100864.69
2023-03-02T21:53:25.404Z,100874.09
2023-03-02T21:55:54.910Z,100876.28
2023-03-02T21:58:22.894Z,100868.34
2023-03-02T22:00:51.875Z,100872.09
2023-03-02T22:03:19.593Z,100885.31
2023-03-02T22:05:47.358Z,100876.78
2023-03-02T22:08:18.400Z,100869.81
2023-03-02T22:10:48.188Z,100872.13
2023-03-02T22:13:20.301Z,100870.56
2023-03-02T22:15:49.289Z,100870.25
2023-03-02T22:18:20.857Z,100880.22
2023-03-02T22:20:50.961Z,100882.16
2023-03-02T22:23:21.008Z,100878.47
2023-03-02T22:25:50.447Z,100878.72
2023-03-02T22:28:20.852Z,100881.47
2023-03-02T22:30:49.346Z,100889.63
2023-03-02T22:33:21.821Z,100893.00
2023-03-02T22:35:50.952Z,100892.03
2023-03-02T22:38:24.864Z,100893.00
2023-03-02T22:40:53.384Z,100891.44
2023-03-02T22:43:25.931Z,100895.19
2023-03-02T22:45:53.938Z,100899.75
2023-03-02T22:48:25.476Z,100898.53
2023-03-02T22:50:53.182Z,100900.94
2023-03-02T22:53:28.193Z,100902.88
2023-03-02T22:55:58.420Z,100899.03
2023-03-02T22:58:30.581Z,100904.31
2023-03-02T23:00:59.246Z,100899.38
2023-03-02T23:03:37.850Z,100893.97
2023-03-02T23:06:20.544Z,100890.16
2023-03-02T23:08:48.223Z,100895.22
2023-03-02T23:11:18.471Z,100892.69
2023-03-02T23:13:46.531Z,100897.13
2023-03-02T23:16:20.243Z,100897.13
2023-03-02T23:18:50.328Z,100899.03
2023-03-02T23:21:20.372Z,100899.03
2023-03-02T23:23:48.358Z,100895.44
2023-03-02T23:26:19.527Z,100900.50
2023-03-02T23:28:48.980Z,100893.53
2023-03-02T23:31:18.376Z,100897.97
2023-03-02T23:33:46.572Z,100904.53
2023-03-02T23:36:16.158Z,100895.44
2023-03-02T23:38:43.890Z,100900.00
2023-03-02T23:41:11.519Z,100906.94
2023-03-02T23:43:39.258Z,100904.19
2023-03-02T23:46:07.098Z,100909.38
2023-03-02T23:48:35.096Z,100901.44
2023-03-02T23:51:02.777Z,100896.38
2023-03-02T23:53:31.771Z,100906.94
2023-03-02T23:55:59.542Z,100910.56
2023-03-02T23:58:27.423Z,100909.84
